Capitol Logistics 960

Operating for DHL



EDDK
Cologne Bonn Airport
Cologne, DE
LFPG
Charles de Gaulle
Paris, FR

Route Details

Aircraft Information
Group: European Fleet
Types: A30F,A31F,B738
Route Data
Demand: H
Distance: 210nm
Duration: 0h 55m
Recm'd Route: NVO2B NVO Y868 SOGRI UM617 SISGA/N0445F230 UZ319 MOPIL MOPI9E
Origin Wx: EDDK 272050Z AUTO 32010KT CAVOK 12/04 Q1023 NOSIG
Dest. Wx: LFPG 272100Z 34005KT CAVOK 14/07 Q1025 NOSIG
Notes:

Financial History
Total Freight: 423,409lbs
Average Load: 84,682lbs/flt
Fuel Used: 60,631lbs
Avg. Fuel Used: 12,126lbs/flt
Fuel Expense: $23,474
Avg. Fuel Expense: $4,695
Avg. Fuel Cost: $0.35/lbs
Total Gross Income: $886,771
Pilot Pay: $1,045
Total Expenses: $141,777
Total Revenue: $720,493
Average Revenue: $177,354.12